sensor_id;sensor_type;location;lat;lon;timestamp;temperature;humidity
80132;SHT30;69442;51.442;10.564;2023-06-22T00:00:55;23.47;55.57
80132;SHT30;69442;51.442;10.564;2023-06-22T00:03:22;23.43;55.81
80132;SHT30;69442;51.442;10.564;2023-06-22T00:05:49;23.36;55.77
80132;SHT30;69442;51.442;10.564;2023-06-22T00:08:15;23.34;55.85
80132;SHT30;69442;51.442;10.564;2023-06-22T00:10:40;23.29;56.06
80132;SHT30;69442;51.442;10.564;2023-06-22T00:13:07;23.26;56.05
80132;SHT30;69442;51.442;10.564;2023-06-22T00:15:33;23.22;56.01
80132;SHT30;69442;51.442;10.564;2023-06-22T00:17:59;23.15;56.15
80132;SHT30;69442;51.442;10.564;2023-06-22T00:20:26;23.14;56.22
80132;SHT30;69442;51.442;10.564;2023-06-22T00:22:57;23.09;56.41
80132;SHT30;69442;51.442;10.564;2023-06-22T00:25:23;23.09;56.51
80132;SHT30;69442;51.442;10.564;2023-06-22T00:27:49;23.02;56.63
80132;SHT30;69442;51.442;10.564;2023-06-22T00:30:18;23.02;56.40
80132;SHT30;69442;51.442;10.564;2023-06-22T00:32:44;22.99;56.17
80132;SHT30;69442;51.442;10.564;2023-06-22T00:35:10;22.95;56.30
80132;SHT30;69442;51.442;10.564;2023-06-22T00:37:36;22.91;56.24
80132;SHT30;69442;51.442;10.564;2023-06-22T00:40:02;22.88;56.23
80132;SHT30;69442;51.442;10.564;2023-06-22T00:42:29;22.87;56.33
80132;SHT30;69442;51.442;10.564;2023-06-22T00:44:55;22.81;56.24
80132;SHT30;69442;51.442;10.564;2023-06-22T00:47:21;22.81;56.32
80132;SHT30;69442;51.442;10.564;2023-06-22T00:49:47;22.77;56.20
80132;SHT30;69442;51.442;10.564;2023-06-22T00:52:17;22.71;56.24
80132;SHT30;69442;51.442;10.564;2023-06-22T00:54:50;22.67;56.35
80132;SHT30;69442;51.442;10.564;2023-06-22T00:57:17;22.64;56.39
80132;SHT30;69442;51.442;10.564;2023-06-22T00:59:44;22.59;56.39
80132;SHT30;69442;51.442;10.564;2023-06-22T01:02:09;22.59;56.18
80132;SHT30;69442;51.442;10.564;2023-06-22T01:04:36;22.54;56.50
80132;SHT30;69442;51.442;10.564;2023-06-22T01:12:30;22.40;56.93
80132;SHT30;69442;51.442;10.564;2023-06-22T01:15:18;22.40;57.17
80132;SHT30;69442;51.442;10.564;2023-06-22T01:17:48;22.39;57.11
80132;SHT30;69442;51.442;10.564;2023-06-22T01:20:15;22.36;57.18
80132;SHT30;69442;51.442;10.564;2023-06-22T01:28:47;22.29;57.60
80132;SHT30;69442;51.442;10.564;2023-06-22T01:31:18;22.28;57.52
80132;SHT30;69442;51.442;10.564;2023-06-22T01:33:48;22.23;57.23
80132;SHT30;69442;51.442;10.564;2023-06-22T01:36:14;22.22;57.24
80132;SHT30;69442;51.442;10.564;2023-06-22T01:38:41;22.19;57.26
80132;SHT30;69442;51.442;10.564;2023-06-22T01:41:07;22.18;57.68
80132;SHT30;69442;51.442;10.564;2023-06-22T01:43:33;22.13;57.84
80132;SHT30;69442;51.442;10.564;2023-06-22T01:46:01;22.11;57.57
80132;SHT30;69442;51.442;10.564;2023-06-22T01:48:27;22.08;57.48
80132;SHT30;69442;51.442;10.564;2023-06-22T01:50:53;22.06;57.24
80132;SHT30;69442;51.442;10.564;2023-06-22T01:53:21;22.05;57.29
80132;SHT30;69442;51.442;10.564;2023-06-22T01:55:47;22.02;57.09
80132;SHT30;69442;51.442;10.564;2023-06-22T01:58:12;22.01;57.15
80132;SHT30;69442;51.442;10.564;2023-06-22T02:00:39;21.97;57.17
80132;SHT30;69442;51.442;10.564;2023-06-22T02:03:10;21.94;57.11
80132;SHT30;69442;51.442;10.564;2023-06-22T02:05:41;21.90;56.93
80132;SHT30;69442;51.442;10.564;2023-06-22T02:08:19;21.87;57.16
80132;SHT30;69442;51.442;10.564;2023-06-22T02:10:47;21.84;56.96
80132;SHT30;69442;51.442;10.564;2023-06-22T02:13:14;21.83;56.79
80132;SHT30;69442;51.442;10.564;2023-06-22T02:15:40;21.78;56.88
80132;SHT30;69442;51.442;10.564;2023-06-22T02:18:06;21.73;56.74
80132;SHT30;69442;51.442;10.564;2023-06-22T02:20:31;21.71;56.75
80132;SHT30;69442;51.442;10.564;2023-06-22T02:22:57;21.67;56.85
80132;SHT30;69442;51.442;10.564;2023-06-22T02:25:22;21.66;56.91
80132;SHT30;69442;51.442;10.564;2023-06-22T02:27:47;21.63;56.99
80132;SHT30;69442;51.442;10.564;2023-06-22T02:30:13;21.61;57.04
80132;SHT30;69442;51.442;10.564;2023-06-22T02:32:41;21.57;57.13
80132;SHT30;69442;51.442;10.564;2023-06-22T02:35:08;21.56;57.19
80132;SHT30;69442;51.442;10.564;2023-06-22T02:37:35;21.56;57.07
80132;SHT30;69442;51.442;10.564;2023-06-22T02:40:01;21.51;57.11
80132;SHT30;69442;51.442;10.564;2023-06-22T02:42:28;21.53;57.13
80132;SHT30;69442;51.442;10.564;2023-06-22T02:44:53;21.51;57.22
80132;SHT30;69442;51.442;10.564;2023-06-22T02:47:18;21.51;57.08
80132;SHT30;69442;51.442;10.564;2023-06-22T02:49:44;21.49;57.15
80132;SHT30;69442;51.442;10.564;2023-06-22T02:52:11;21.49;57.09
80132;SHT30;69442;51.442;10.564;2023-06-22T02:54:36;21.47;57.35
80132;SHT30;69442;51.442;10.564;2023-06-22T02:57:01;21.46;57.24
80132;SHT30;69442;51.442;10.564;2023-06-22T02:59:28;21.43;57.28
80132;SHT30;69442;51.442;10.564;2023-06-22T03:01:53;21.42;57.15
80132;SHT30;69442;51.442;10.564;2023-06-22T03:04:19;21.43;57.07
80132;SHT30;69442;51.442;10.564;2023-06-22T03:06:44;21.42;57.18
80132;SHT30;69442;51.442;10.564;2023-06-22T03:09:10;21.43;57.24
80132;SHT30;69442;51.442;10.564;2023-06-22T03:11:36;21.38;57.31
80132;SHT30;69442;51.442;10.564;2023-06-22T03:14:01;21.36;57.48
80132;SHT30;69442;51.442;10.564;2023-06-22T03:16:27;21.36;57.52
80132;SHT30;69442;51.442;10.564;2023-06-22T03:18:52;21.38;57.75
80132;SHT30;69442;51.442;10.564;2023-06-22T03:21:22;21.36;58.00
80132;SHT30;69442;51.442;10.564;2023-06-22T03:23:48;21.33;58.21
80132;SHT30;69442;51.442;10.564;2023-06-22T03:26:16;21.33;58.52
80132;SHT30;69442;51.442;10.564;2023-06-22T03:28:42;21.32;58.72
80132;SHT30;69442;51.442;10.564;2023-06-22T03:31:07;21.32;58.87
80132;SHT30;69442;51.442;10.564;2023-06-22T03:33:33;21.30;58.67
80132;SHT30;69442;51.442;10.564;2023-06-22T03:35:58;21.32;58.87
80132;SHT30;69442;51.442;10.564;2023-06-22T03:38:24;21.33;58.61
80132;SHT30;69442;51.442;10.564;2023-06-22T03:40:49;21.29;58.83
80132;SHT30;69442;51.442;10.564;2023-06-22T03:43:14;21.30;58.76
80132;SHT30;69442;51.442;10.564;2023-06-22T03:45:40;21.30;58.79
80132;SHT30;69442;51.442;10.564;2023-06-22T03:48:05;21.29;58.82
80132;SHT30;69442;51.442;10.564;2023-06-22T03:50:31;21.30;58.93
80132;SHT30;69442;51.442;10.564;2023-06-22T03:52:56;21.29;59.03
80132;SHT30;69442;51.442;10.564;2023-06-22T03:55:21;21.30;58.96
80132;SHT30;69442;51.442;10.564;2023-06-22T03:57:47;21.26;59.10
80132;SHT30;69442;51.442;10.564;2023-06-22T04:00:13;21.26;59.30
80132;SHT30;69442;51.442;10.564;2023-06-22T04:02:38;21.26;59.26
80132;SHT30;69442;51.442;10.564;2023-06-22T04:05:04;21.25;59.28
80132;SHT30;69442;51.442;10.564;2023-06-22T04:07:30;21.23;59.43
80132;SHT30;69442;51.442;10.564;2023-06-22T04:09:55;21.23;59.32
80132;SHT30;69442;51.442;10.564;2023-06-22T04:12:20;21.22;59.39
80132;SHT30;69442;51.442;10.564;2023-06-22T04:14:46;21.23;59.32
80132;SHT30;69442;51.442;10.564;2023-06-22T04:17:11;21.25;59.54
80132;SHT30;69442;51.442;10.564;2023-06-22T04:19:39;21.23;60.15
80132;SHT30;69442;51.442;10.564;2023-06-22T04:22:05;21.21;59.78
80132;SHT30;69442;51.442;10.564;2023-06-22T04:24:32;21.21;59.98
80132;SHT30;69442;51.442;10.564;2023-06-22T04:26:58;21.22;60.16
80132;SHT30;69442;51.442;10.564;2023-06-22T04:29:26;21.23;60.08
80132;SHT30;69442;51.442;10.564;2023-06-22T04:31:54;21.25;60.29
80132;SHT30;69442;51.442;10.564;2023-06-22T04:34:21;21.25;60.96
80132;SHT30;69442;51.442;10.564;2023-06-22T04:36:47;21.29;60.69
80132;SHT30;69442;51.442;10.564;2023-06-22T04:39:12;21.32;60.92
80132;SHT30;69442;51.442;10.564;2023-06-22T04:41:39;21.33;61.05
80132;SHT30;69442;51.442;10.564;2023-06-22T04:44:10;21.36;61.03
80132;SHT30;69442;51.442;10.564;2023-06-22T04:46:36;21.40;61.26
80132;SHT30;69442;51.442;10.564;2023-06-22T04:49:05;21.42;61.27
80132;SHT30;69442;51.442;10.564;2023-06-22T04:51:32;21.43;61.13
80132;SHT30;69442;51.442;10.564;2023-06-22T04:53:57;21.47;61.30
80132;SHT30;69442;51.442;10.564;2023-06-22T04:56:26;21.47;61.13
80132;SHT30;69442;51.442;10.564;2023-06-22T04:58:53;21.51;61.08
80132;SHT30;69442;51.442;10.564;2023-06-22T05:01:22;21.54;61.10
80132;SHT30;69442;51.442;10.564;2023-06-22T05:03:48;21.54;61.15
80132;SHT30;69442;51.442;10.564;2023-06-22T05:06:13;21.56;61.14
80132;SHT30;69442;51.442;10.564;2023-06-22T05:08:39;21.58;61.52
80132;SHT30;69442;51.442;10.564;2023-06-22T05:11:05;21.61;61.55
80132;SHT30;69442;51.442;10.564;2023-06-22T05:13:31;21.64;61.36
80132;SHT30;69442;51.442;10.564;2023-06-22T05:15:56;21.68;61.59
80132;SHT30;69442;51.442;10.564;2023-06-22T05:18:29;21.71;61.65
80132;SHT30;69442;51.442;10.564;2023-06-22T05:20:55;21.74;61.99
80132;SHT30;69442;51.442;10.564;2023-06-22T05:23:20;21.78;61.84
80132;SHT30;69442;51.442;10.564;2023-06-22T05:25:46;21.77;62.04
80132;SHT30;69442;51.442;10.564;2023-06-22T05:28:11;21.80;62.18
80132;SHT30;69442;51.442;10.564;2023-06-22T05:30:37;21.81;62.16
80132;SHT30;69442;51.442;10.564;2023-06-22T05:33:03;21.83;62.28
80132;SHT30;69442;51.442;10.564;2023-06-22T05:35:28;21.83;62.47
80132;SHT30;69442;51.442;10.564;2023-06-22T05:37:55;21.88;62.45
80132;SHT30;69442;51.442;10.564;2023-06-22T05:40:20;21.88;62.86
80132;SHT30;69442;51.442;10.564;2023-06-22T05:42:46;21.92;62.88
80132;SHT30;69442;51.442;10.564;2023-06-22T05:45:11;21.95;62.90
80132;SHT30;69442;51.442;10.564;2023-06-22T05:47:36;21.97;62.71
80132;SHT30;69442;51.442;10.564;2023-06-22T05:50:02;22.00;62.81
80132;SHT30;69442;51.442;10.564;2023-06-22T05:52:32;22.01;62.74
80132;SHT30;69442;51.442;10.564;2023-06-22T05:54:57;22.05;62.37
80132;SHT30;69442;51.442;10.564;2023-06-22T05:57:22;22.06;62.05
80132;SHT30;69442;51.442;10.564;2023-06-22T05:59:48;22.09;61.89
80132;SHT30;69442;51.442;10.564;2023-06-22T06:02:13;22.15;61.73
80132;SHT30;69442;51.442;10.564;2023-06-22T06:04:39;22.18;61.35
80132;SHT30;69442;51.442;10.564;2023-06-22T06:07:04;22.20;60.89
80132;SHT30;69442;51.442;10.564;2023-06-22T06:09:30;22.23;60.57
80132;SHT30;69442;51.442;10.564;2023-06-22T06:11:55;22.32;60.17
80132;SHT30;69442;51.442;10.564;2023-06-22T06:14:21;22.36;59.87
80132;SHT30;69442;51.442;10.564;2023-06-22T06:16:46;22.40;59.66
80132;SHT30;69442;51.442;10.564;2023-06-22T06:19:11;22.43;59.41
80132;SHT30;69442;51.442;10.564;2023-06-22T06:21:37;22.47;59.01
80132;SHT30;69442;51.442;10.564;2023-06-22T06:24:02;22.56;58.82
80132;SHT30;69442;51.442;10.564;2023-06-22T06:26:28;22.59;58.56
80132;SHT30;69442;51.442;10.564;2023-06-22T06:28:55;22.61;58.35
80132;SHT30;69442;51.442;10.564;2023-06-22T06:31:21;22.70;58.17
80132;SHT30;69442;51.442;10.564;2023-06-22T06:33:46;22.74;57.96
80132;SHT30;69442;51.442;10.564;2023-06-22T06:36:12;22.83;57.76
80132;SHT30;69442;51.442;10.564;2023-06-22T06:38:37;22.87;57.54
80132;SHT30;69442;51.442;10.564;2023-06-22T06:41:02;22.92;57.42
80132;SHT30;69442;51.442;10.564;2023-06-22T06:43:28;22.95;57.33
80132;SHT30;69442;51.442;10.564;2023-06-22T06:45:53;23.02;57.10
80132;SHT30;69442;51.442;10.564;2023-06-22T06:48:18;23.09;56.96
80132;SHT30;69442;51.442;10.564;2023-06-22T06:50:44;23.15;56.79
80132;SHT30;69442;51.442;10.564;2023-06-22T06:53:10;23.19;56.77
80132;SHT30;69442;51.442;10.564;2023-06-22T06:55:35;23.25;56.61
80132;SHT30;69442;51.442;10.564;2023-06-22T06:58:02;23.29;56.46
80132;SHT30;69442;51.442;10.564;2023-06-22T07:00:28;23.36;56.40
80132;SHT30;69442;51.442;10.564;2023-06-22T07:02:53;23.39;56.32
80132;SHT30;69442;51.442;10.564;2023-06-22T07:05:18;23.46;56.21
80132;SHT30;69442;51.442;10.564;2023-06-22T07:07:44;23.50;56.06
80132;SHT30;69442;51.442;10.564;2023-06-22T07:10:10;23.61;56.01
80132;SHT30;69442;51.442;10.564;2023-06-22T07:12:35;23.66;55.91
80132;SHT30;69442;51.442;10.564;2023-06-22T07:15:05;23.70;56.25
80132;SHT30;69442;51.442;10.564;2023-06-22T07:17:33;23.77;55.78
80132;SHT30;69442;51.442;10.564;2023-06-22T07:19:58;23.81;55.61
80132;SHT30;69442;51.442;10.564;2023-06-22T07:22:24;23.89;55.62
80132;SHT30;69442;51.442;10.564;2023-06-22T07:24:49;23.95;55.58
80132;SHT30;69442;51.442;10.564;2023-06-22T07:27:15;24.00;55.63
80132;SHT30;69442;51.442;10.564;2023-06-22T07:29:44;24.05;55.46
80132;SHT30;69442;51.442;10.564;2023-06-22T07:32:09;24.15;55.31
80132;SHT30;69442;51.442;10.564;2023-06-22T07:34:34;24.18;55.28
80132;SHT30;69442;51.442;10.564;2023-06-22T07:37:00;24.26;55.29
80132;SHT30;69442;51.442;10.564;2023-06-22T07:39:25;24.33;55.33
80132;SHT30;69442;51.442;10.564;2023-06-22T07:41:52;24.43;55.39
80132;SHT30;69442;51.442;10.564;2023-06-22T07:44:18;24.50;55.37
80132;SHT30;69442;51.442;10.564;2023-06-22T07:46:43;24.61;55.23
80132;SHT30;69442;51.442;10.564;2023-06-22T07:49:08;24.70;55.06
80132;SHT30;69442;51.442;10.564;2023-06-22T07:51:34;24.80;55.17
80132;SHT30;69442;51.442;10.564;2023-06-22T07:54:00;24.91;55.35
80132;SHT30;69442;51.442;10.564;2023-06-22T07:56:25;24.98;55.30
80132;SHT30;69442;51.442;10.564;2023-06-22T07:58:50;25.07;55.27
80132;SHT30;69442;51.442;10.564;2023-06-22T08:01:16;25.18;55.33
80132;SHT30;69442;51.442;10.564;2023-06-22T08:03:42;25.25;55.45
80132;SHT30;69442;51.442;10.564;2023-06-22T08:06:08;25.33;55.05
80132;SHT30;69442;51.442;10.564;2023-06-22T08:08:35;25.42;55.34
80132;SHT30;69442;51.442;10.564;2023-06-22T08:11:00;25.50;54.87
80132;SHT30;69442;51.442;10.564;2023-06-22T08:13:26;25.61;54.89
80132;SHT30;69442;51.442;10.564;2023-06-22T08:15:51;25.73;55.17
80132;SHT30;69442;51.442;10.564;2023-06-22T08:18:16;25.82;55.46
80132;SHT30;69442;51.442;10.564;2023-06-22T08:20:42;25.92;55.54
80132;SHT30;69442;51.442;10.564;2023-06-22T08:23:07;26.02;55.53
80132;SHT30;69442;51.442;10.564;2023-06-22T08:25:33;26.08;55.36
80132;SHT30;69442;51.442;10.564;2023-06-22T08:28:00;26.19;55.63
80132;SHT30;69442;51.442;10.564;2023-06-22T08:30:25;26.28;55.54
80132;SHT30;69442;51.442;10.564;2023-06-22T08:32:51;26.37;55.35
80132;SHT30;69442;51.442;10.564;2023-06-22T08:35:16;26.44;55.43
80132;SHT30;69442;51.442;10.564;2023-06-22T08:37:42;26.54;55.70
80132;SHT30;69442;51.442;10.564;2023-06-22T08:40:09;26.65;55.88
80132;SHT30;69442;51.442;10.564;2023-06-22T08:42:36;26.78;55.86
80132;SHT30;69442;51.442;10.564;2023-06-22T08:45:02;26.92;55.95
80132;SHT30;69442;51.442;10.564;2023-06-22T08:47:28;27.02;56.02
80132;SHT30;69442;51.442;10.564;2023-06-22T08:49:53;27.13;55.97
80132;SHT30;69442;51.442;10.564;2023-06-22T08:52:19;27.28;55.81
80132;SHT30;69442;51.442;10.564;2023-06-22T08:54:46;27.40;55.95
80132;SHT30;69442;51.442;10.564;2023-06-22T08:57:11;27.53;55.92
80132;SHT30;69442;51.442;10.564;2023-06-22T08:59:37;27.68;55.72
80132;SHT30;69442;51.442;10.564;2023-06-22T09:02:02;27.78;55.64
80132;SHT30;69442;51.442;10.564;2023-06-22T09:04:27;27.92;55.08
80132;SHT30;69442;51.442;10.564;2023-06-22T09:06:53;28.02;55.24
80132;SHT30;69442;51.442;10.564;2023-06-22T09:09:18;28.15;55.39
80132;SHT30;69442;51.442;10.564;2023-06-22T09:11:44;28.23;55.40
80132;SHT30;69442;51.442;10.564;2023-06-22T09:14:10;28.39;55.14
80132;SHT30;69442;51.442;10.564;2023-06-22T09:16:35;28.56;54.91
80132;SHT30;69442;51.442;10.564;2023-06-22T09:19:01;28.64;55.16
80132;SHT30;69442;51.442;10.564;2023-06-22T09:21:27;28.78;54.99
80132;SHT30;69442;51.442;10.564;2023-06-22T09:23:52;28.90;54.87
80132;SHT30;69442;51.442;10.564;2023-06-22T09:26:18;29.04;54.88
80132;SHT30;69442;51.442;10.564;2023-06-22T09:28:44;29.18;54.93
80132;SHT30;69442;51.442;10.564;2023-06-22T09:31:09;29.32;54.69
80132;SHT30;69442;51.442;10.564;2023-06-22T09:33:35;29.43;54.32
80132;SHT30;69442;51.442;10.564;2023-06-22T09:36:01;29.56;54.27
80132;SHT30;69442;51.442;10.564;2023-06-22T09:38:26;29.71;54.16
80132;SHT30;69442;51.442;10.564;2023-06-22T09:40:52;29.85;53.95
80132;SHT30;69442;51.442;10.564;2023-06-22T09:43:17;29.98;53.74
80132;SHT30;69442;51.442;10.564;2023-06-22T09:45:42;30.16;53.63
80132;SHT30;69442;51.442;10.564;2023-06-22T09:48:08;30.29;53.62
80132;SHT30;69442;51.442;10.564;2023-06-22T09:50:35;30.44;53.44
80132;SHT30;69442;51.442;10.564;2023-06-22T09:53:00;30.57;53.22
80132;SHT30;69442;51.442;10.564;2023-06-22T09:55:26;30.71;53.08
80132;SHT30;69442;51.442;10.564;2023-06-22T09:57:51;30.85;52.79
80132;SHT30;69442;51.442;10.564;2023-06-22T10:00:17;30.96;52.50
80132;SHT30;69442;51.442;10.564;2023-06-22T10:02:44;31.14;52.40
80132;SHT30;69442;51.442;10.564;2023-06-22T10:05:10;31.27;52.02
80132;SHT30;69442;51.442;10.564;2023-06-22T10:07:35;31.43;51.58
80132;SHT30;69442;51.442;10.564;2023-06-22T10:10:06;31.51;51.51
80132;SHT30;69442;51.442;10.564;2023-06-22T10:12:31;31.67;51.32
80132;SHT30;69442;51.442;10.564;2023-06-22T10:14:57;31.84;51.33
80132;SHT30;69442;51.442;10.564;2023-06-22T10:17:22;31.99;51.11
80132;SHT30;69442;51.442;10.564;2023-06-22T10:19:47;32.12;50.68
80132;SHT30;69442;51.442;10.564;2023-06-22T10:22:13;32.23;50.30
80132;SHT30;69442;51.442;10.564;2023-06-22T10:24:38;32.36;50.10
80132;SHT30;69442;51.442;10.564;2023-06-22T10:27:10;32.52;49.68
80132;SHT30;69442;51.442;10.564;2023-06-22T10:29:35;32.64;49.43
80132;SHT30;69442;51.442;10.564;2023-06-22T10:32:01;32.78;49.18
80132;SHT30;69442;51.442;10.564;2023-06-22T10:34:26;32.88;48.93
80132;SHT30;69442;51.442;10.564;2023-06-22T10:36:51;33.01;48.89
80132;SHT30;69442;51.442;10.564;2023-06-22T10:39:17;33.11;48.71
80132;SHT30;69442;51.442;10.564;2023-06-22T10:41:42;33.23;48.65
80132;SHT30;69442;51.442;10.564;2023-06-22T10:44:08;33.36;48.28
80132;SHT30;69442;51.442;10.564;2023-06-22T10:46:33;33.49;48.05
80132;SHT30;69442;51.442;10.564;2023-06-22T10:48:59;33.57;47.88
80132;SHT30;69442;51.442;10.564;2023-06-22T10:51:25;33.70;47.85
80132;SHT30;69442;51.442;10.564;2023-06-22T10:53:50;33.82;47.66
80132;SHT30;69442;51.442;10.564;2023-06-22T10:56:16;33.93;47.31
80132;SHT30;69442;51.442;10.564;2023-06-22T10:58:44;34.02;47.24
80132;SHT30;69442;51.442;10.564;2023-06-22T11:01:09;34.12;47.16
80132;SHT30;69442;51.442;10.564;2023-06-22T11:03:35;34.21;46.99
80132;SHT30;69442;51.442;10.564;2023-06-22T11:06:00;34.29;46.89
80132;SHT30;69442;51.442;10.564;2023-06-22T11:08:25;34.38;46.78
80132;SHT30;69442;51.442;10.564;2023-06-22T11:10:51;34.43;46.60
80132;SHT30;69442;51.442;10.564;2023-06-22T11:13:19;34.52;46.51
80132;SHT30;69442;51.442;10.564;2023-06-22T11:15:44;34.57;46.57
80132;SHT30;69442;51.442;10.564;2023-06-22T11:18:09;34.68;46.37
80132;SHT30;69442;51.442;10.564;2023-06-22T11:20:35;34.79;46.26
80132;SHT30;69442;51.442;10.564;2023-06-22T11:23:04;34.84;45.87
80132;SHT30;69442;51.442;10.564;2023-06-22T11:25:30;34.91;45.82
80132;SHT30;69442;51.442;10.564;2023-06-22T11:27:56;35.00;45.76
80132;SHT30;69442;51.442;10.564;2023-06-22T11:30:21;35.07;45.79
80132;SHT30;69442;51.442;10.564;2023-06-22T11:32:47;35.19;45.63
80132;SHT30;69442;51.442;10.564;2023-06-22T11:35:13;35.31;45.58
80132;SHT30;69442;51.442;10.564;2023-06-22T11:37:38;35.39;45.38
80132;SHT30;69442;51.442;10.564;2023-06-22T11:40:04;35.46;44.99
80132;SHT30;69442;51.442;10.564;2023-06-22T11:42:30;35.49;44.97
80132;SHT30;69442;51.442;10.564;2023-06-22T11:44:56;35.55;44.92
80132;SHT30;69442;51.442;10.564;2023-06-22T11:47:21;35.57;45.08
80132;SHT30;69442;51.442;10.564;2023-06-22T11:49:46;35.64;44.98
80132;SHT30;69442;51.442;10.564;2023-06-22T11:52:12;35.69;44.71
80132;SHT30;69442;51.442;10.564;2023-06-22T11:54:37;35.73;44.85
80132;SHT30;69442;51.442;10.564;2023-06-22T11:57:04;35.79;44.73
80132;SHT30;69442;51.442;10.564;2023-06-22T11:59:29;35.83;44.67
80132;SHT30;69442;51.442;10.564;2023-06-22T12:01:54;35.87;44.65
80132;SHT30;69442;51.442;10.564;2023-06-22T12:04:20;35.94;44.59
80132;SHT30;69442;51.442;10.564;2023-06-22T12:06:45;36.05;44.38
80132;SHT30;69442;51.442;10.564;2023-06-22T12:09:11;36.14;44.30
80132;SHT30;69442;51.442;10.564;2023-06-22T12:11:38;36.23;44.03
80132;SHT30;69442;51.442;10.564;2023-06-22T12:14:04;36.29;43.93
80132;SHT30;69442;51.442;10.564;2023-06-22T12:16:29;36.39;43.87
80132;SHT30;69442;51.442;10.564;2023-06-22T12:18:55;36.45;43.51
80132;SHT30;69442;51.442;10.564;2023-06-22T12:21:20;36.48;43.52
80132;SHT30;69442;51.442;10.564;2023-06-22T12:23:46;36.48;43.41
80132;SHT30;69442;51.442;10.564;2023-06-22T12:26:11;36.46;43.34
80132;SHT30;69442;51.442;10.564;2023-06-22T12:28:36;36.45;43.28
80132;SHT30;69442;51.442;10.564;2023-06-22T12:31:02;36.48;43.27
80132;SHT30;69442;51.442;10.564;2023-06-22T12:33:27;36.49;43.05
80132;SHT30;69442;51.442;10.564;2023-06-22T12:35:52;36.56;42.88
80132;SHT30;69442;51.442;10.564;2023-06-22T12:38:18;36.60;42.83
80132;SHT30;69442;51.442;10.564;2023-06-22T12:40:43;36.63;42.49
80132;SHT30;69442;51.442;10.564;2023-06-22T12:43:09;36.63;42.35
80132;SHT30;69442;51.442;10.564;2023-06-22T12:45:34;36.66;42.37
80132;SHT30;69442;51.442;10.564;2023-06-22T12:48:00;36.69;42.28
80132;SHT30;69442;51.442;10.564;2023-06-22T12:50:27;36.67;42.18
80132;SHT30;69442;51.442;10.564;2023-06-22T12:52:52;36.69;42.03
80132;SHT30;69442;51.442;10.564;2023-06-22T12:55:18;36.69;42.18
80132;SHT30;69442;51.442;10.564;2023-06-22T12:57:43;36.75;42.14
80132;SHT30;69442;51.442;10.564;2023-06-22T13:00:09;36.84;42.15
80132;SHT30;69442;51.442;10.564;2023-06-22T13:02:37;36.91;41.93
80132;SHT30;69442;51.442;10.564;2023-06-22T13:05:03;36.97;41.89
80132;SHT30;69442;51.442;10.564;2023-06-22T13:07:30;37.04;41.78
80132;SHT30;69442;51.442;10.564;2023-06-22T13:09:55;37.18;41.67
80132;SHT30;69442;51.442;10.564;2023-06-22T13:12:21;37.22;41.51
80132;SHT30;69442;51.442;10.564;2023-06-22T13:14:46;37.32;41.44
80132;SHT30;69442;51.442;10.564;2023-06-22T13:17:12;37.39;41.15
80132;SHT30;69442;51.442;10.564;2023-06-22T13:19:39;37.45;41.28
80132;SHT30;69442;51.442;10.564;2023-06-22T13:22:04;37.54;41.16
80132;SHT30;69442;51.442;10.564;2023-06-22T13:24:30;37.61;40.93
80132;SHT30;69442;51.442;10.564;2023-06-22T13:26:56;37.69;40.82
80132;SHT30;69442;51.442;10.564;2023-06-22T13:29:21;37.72;40.71
80132;SHT30;69442;51.442;10.564;2023-06-22T13:31:46;37.76;40.62
80132;SHT30;69442;51.442;10.564;2023-06-22T13:34:12;37.80;40.36
80132;SHT30;69442;51.442;10.564;2023-06-22T13:36:37;37.87;40.40
80132;SHT30;69442;51.442;10.564;2023-06-22T13:39:03;37.86;40.37
80132;SHT30;69442;51.442;10.564;2023-06-22T13:41:29;37.86;40.17
80132;SHT30;69442;51.442;10.564;2023-06-22T13:43:54;37.77;40.21
80132;SHT30;69442;51.442;10.564;2023-06-22T13:46:20;37.77;40.15
80132;SHT30;69442;51.442;10.564;2023-06-22T13:48:45;37.80;40.29
80132;SHT30;69442;51.442;10.564;2023-06-22T13:51:12;37.82;40.08
80132;SHT30;69442;51.442;10.564;2023-06-22T13:53:37;37.84;40.20
80132;SHT30;69442;51.442;10.564;2023-06-22T13:56:03;37.91;40.12
80132;SHT30;69442;51.442;10.564;2023-06-22T13:58:28;37.97;40.05
80132;SHT30;69442;51.442;10.564;2023-06-22T14:00:54;37.99;39.88
80132;SHT30;69442;51.442;10.564;2023-06-22T14:03:19;38.04;39.62
80132;SHT30;69442;51.442;10.564;2023-06-22T14:05:44;38.08;39.49
80132;SHT30;69442;51.442;10.564;2023-06-22T14:08:11;38.10;39.16
80132;SHT30;69442;51.442;10.564;2023-06-22T14:10:36;38.14;38.85
80132;SHT30;69442;51.442;10.564;2023-06-22T14:13:02;38.21;38.50
80132;SHT30;69442;51.442;10.564;2023-06-22T14:15:27;38.25;38.65
80132;SHT30;69442;51.442;10.564;2023-06-22T14:17:53;38.27;38.54
80132;SHT30;69442;51.442;10.564;2023-06-22T14:20:18;38.27;38.81
80132;SHT30;69442;51.442;10.564;2023-06-22T14:22:43;38.31;38.79
80132;SHT30;69442;51.442;10.564;2023-06-22T14:25:09;38.25;38.60
80132;SHT30;69442;51.442;10.564;2023-06-22T14:27:34;38.27;38.65
80132;SHT30;69442;51.442;10.564;2023-06-22T14:29:59;38.21;38.77
80132;SHT30;69442;51.442;10.564;2023-06-22T14:32:28;38.14;38.56
80132;SHT30;69442;51.442;10.564;2023-06-22T14:34:55;38.11;38.77
80132;SHT30;69442;51.442;10.564;2023-06-22T14:37:20;38.06;38.78
80132;SHT30;69442;51.442;10.564;2023-06-22T14:39:46;37.99;38.43
80132;SHT30;69442;51.442;10.564;2023-06-22T14:42:11;37.93;38.61
80132;SHT30;69442;51.442;10.564;2023-06-22T14:44:36;37.84;38.63
80132;SHT30;69442;51.442;10.564;2023-06-22T14:47:02;37.77;38.60
80132;SHT30;69442;51.442;10.564;2023-06-22T14:49:27;37.69;38.44
80132;SHT30;69442;51.442;10.564;2023-06-22T14:51:53;37.56;38.53
80132;SHT30;69442;51.442;10.564;2023-06-22T14:54:18;37.46;38.71
80132;SHT30;69442;51.442;10.564;2023-06-22T14:56:43;37.38;38.81
80132;SHT30;69442;51.442;10.564;2023-06-22T14:59:09;37.27;38.81
80132;SHT30;69442;51.442;10.564;2023-06-22T15:01:35;37.18;38.96
80132;SHT30;69442;51.442;10.564;2023-06-22T15:04:00;37.07;39.13
80132;SHT30;69442;51.442;10.564;2023-06-22T15:06:26;36.98;39.18
80132;SHT30;69442;51.442;10.564;2023-06-22T15:08:52;36.84;38.95
80132;SHT30;69442;51.442;10.564;2023-06-22T15:11:18;36.79;39.00
80132;SHT30;69442;51.442;10.564;2023-06-22T15:13:43;36.65;39.08
80132;SHT30;69442;51.442;10.564;2023-06-22T15:16:09;36.53;38.95
80132;SHT30;69442;51.442;10.564;2023-06-22T15:18:35;36.45;38.74